createdAt,value
2022-11-29T00:00:22.759Z,71.80
2022-11-29T00:03:26.037Z,63.23
2022-11-29T00:06:30.182Z,59.20
2022-11-29T00:09:32.396Z,71.07
2022-11-29T00:12:34.905Z,55.50
2022-11-29T00:15:37.712Z,58.07
2022-11-29T00:18:39.933Z,61.70
2022-11-29T00:21:42.153Z,58.60
2022-11-29T00:24:44.765Z,47.67
2022-11-29T00:27:47.085Z,46.80
2022-11-29T00:30:49.369Z,53.63
2022-11-29T00:33:51.685Z,51.57
2022-11-29T00:36:54.081Z,47.20
2022-11-29T00:39:56.423Z,46.13
2022-11-29T00:42:58.720Z,43.75
2022-11-29T00:46:01.540Z,47.93
2022-11-29T00:49:04.028Z,41.40
2022-11-29T00:52:06.522Z,36.03
2022-11-29T00:55:09.226Z,36.47
2022-11-29T00:58:11.741Z,40.95
2022-11-29T01:01:14.008Z,31.80
2022-11-29T01:04:16.566Z,36.90
2022-11-29T01:07:18.898Z,37.83
2022-11-29T01:10:21.120Z,33.47
2022-11-29T01:13:23.654Z,42.30
2022-11-29T01:16:26.531Z,35.73
2022-11-29T01:19:28.778Z,43.90
2022-11-29T01:22:31.320Z,32.45
2022-11-29T01:25:33.621Z,38.40
2022-11-29T01:28:36.369Z,35.97
2022-11-29T01:31:38.957Z,32.30
2022-11-29T01:34:41.469Z,35.20
2022-11-29T01:37:44.237Z,33.92
2022-11-29T01:40:56.439Z,37.47
2022-11-29T01:43:58.947Z,38.00
2022-11-29T01:47:01.179Z,43.87
2022-11-29T01:50:03.937Z,39.57
2022-11-29T01:53:06.878Z,48.72
2022-11-29T01:56:09.961Z,33.28
2022-11-29T01:59:14.648Z,43.50
2022-11-29T02:02:22.307Z,38.63
2022-11-29T02:05:25.619Z,31.67
2022-11-29T02:08:31.700Z,31.10
2022-11-29T02:11:40.245Z,35.80
2022-11-29T02:14:45.771Z,29.75
2022-11-29T02:17:48.272Z,37.43
2022-11-29T02:21:02.762Z,37.20
2022-11-29T02:24:24.146Z,38.45
2022-11-29T02:27:45.152Z,34.97
2022-11-29T02:31:02.664Z,38.20
2022-11-29T02:34:31.565Z,51.30
2022-11-29T02:37:40.194Z,45.20
2022-11-29T02:40:48.591Z,48.30
2022-11-29T02:43:58.018Z,42.53
2022-11-29T02:47:06.345Z,33.58
2022-11-29T02:50:27.360Z,46.37
2022-11-29T02:53:37.249Z,42.87
2022-11-29T02:56:45.666Z,39.45
2022-11-29T03:00:03.181Z,41.72
2022-11-29T03:03:35.401Z,48.40
2022-11-29T03:06:40.721Z,40.70
2022-11-29T03:09:46.718Z,33.93
2022-11-29T03:12:50.888Z,35.47
2022-11-29T03:15:59.216Z,39.45
2022-11-29T03:19:22.270Z,31.30
2022-11-29T03:22:30.533Z,38.57
2022-11-29T03:25:50.226Z,36.63
2022-11-29T03:29:01.123Z,39.08
2022-11-29T03:32:06.169Z,30.98
2022-11-29T03:35:11.765Z,44.17
2022-11-29T03:38:46.723Z,31.40
2022-11-29T03:41:52.147Z,34.47
2022-11-29T03:45:00.322Z,33.30
2022-11-29T03:48:08.147Z,40.63
2022-11-29T03:51:14.531Z,34.47
2022-11-29T03:54:21.492Z,36.93
2022-11-29T03:57:31.322Z,32.53
2022-11-29T04:01:00.145Z,29.13
2022-11-29T04:04:14.782Z,27.88
2022-11-29T04:07:29.091Z,33.88
2022-11-29T04:10:50.376Z,24.20
2022-11-29T04:14:04.775Z,30.10
2022-11-29T04:17:16.137Z,27.40
2022-11-29T04:20:18.413Z,45.15
2022-11-29T04:23:45.706Z,38.60
2022-11-29T04:26:59.995Z,35.83
2022-11-29T04:30:08.552Z,40.63
2022-11-29T04:33:19.998Z,43.60
2022-11-29T04:36:25.310Z,35.78
2022-11-29T04:39:44.875Z,38.90
2022-11-29T04:43:10.270Z,38.80
2022-11-29T04:46:24.834Z,36.67
2022-11-29T04:49:45.475Z,28.65
2022-11-29T04:53:06.076Z,33.70
2022-11-29T04:56:13.791Z,32.10
2022-11-29T04:59:34.897Z,33.90
2022-11-29T05:02:41.479Z,29.40
2022-11-29T05:06:02.362Z,28.83
2022-11-29T05:09:10.619Z,27.05
2022-11-29T05:12:23.637Z,29.30
2022-11-29T05:15:26.092Z,25.80
2022-11-29T05:18:58.104Z,30.67
2022-11-29T05:22:25.293Z,46.38
2022-11-29T05:25:27.504Z,41.63
2022-11-29T05:29:02.408Z,36.83
2022-11-29T05:32:04.811Z,28.90
2022-11-29T05:35:28.904Z,36.50
2022-11-29T05:38:31.164Z,43.00
2022-11-29T05:41:39.593Z,33.42
2022-11-29T05:44:44.971Z,56.30
2022-11-29T05:47:54.299Z,46.97
2022-11-29T05:51:05.867Z,50.33
2022-11-29T05:54:08.136Z,65.68
2022-11-29T05:57:37.151Z,42.45
2022-11-29T06:00:52.648Z,58.22
2022-11-29T06:03:58.497Z,48.53
2022-11-29T06:07:16.268Z,49.07
2022-11-29T06:10:20.292Z,49.67
2022-11-29T06:13:44.385Z,46.13
2022-11-29T06:16:57.181Z,43.28
2022-11-29T06:20:19.634Z,41.03
2022-11-29T06:23:48.770Z,48.90
2022-11-29T06:27:17.961Z,40.83
2022-11-29T06:30:23.340Z,50.65
2022-11-29T06:33:44.032Z,56.70
2022-11-29T06:36:47.283Z,56.83
2022-11-29T06:39:50.668Z,48.97
2022-11-29T06:43:00.391Z,47.92
2022-11-29T06:46:14.459Z,47.50
2022-11-29T06:49:27.581Z,49.13
2022-11-29T06:53:07.838Z,47.23
2022-11-29T06:56:52.895Z,48.10
2022-11-29T07:00:16.351Z,48.50
2022-11-29T07:03:21.563Z,48.80
2022-11-29T07:06:37.142Z,48.70
2022-11-29T07:09:41.908Z,44.93
2022-11-29T07:12:52.125Z,44.33
2022-11-29T07:16:12.007Z,44.55
2022-11-29T07:19:29.077Z,48.50
2022-11-29T07:22:40.223Z,41.38
2022-11-29T07:25:48.645Z,30.57
2022-11-29T07:29:00.294Z,33.77
2022-11-29T07:32:15.365Z,31.33
2022-11-29T07:35:30.831Z,31.35
2022-11-29T07:38:42.612Z,33.20
2022-11-29T07:41:55.752Z,29.23
2022-11-29T07:45:14.092Z,28.13
2022-11-29T07:48:17.220Z,25.02
2022-11-29T07:51:20.010Z,24.33
2022-11-29T07:54:22.713Z,26.80
2022-11-29T07:57:26.581Z,26.57
2022-11-29T08:00:36.017Z,31.20
2022-11-29T08:03:41.208Z,36.83
2022-11-29T08:06:45.418Z,32.35
2022-11-29T08:09:48.335Z,34.38
2022-11-29T08:12:53.340Z,39.33
2022-11-29T08:15:56.245Z,44.90
2022-11-29T08:18:59.003Z,39.33
2022-11-29T08:22:01.554Z,35.63
2022-11-29T08:25:05.230Z,41.70
2022-11-29T08:28:08.245Z,47.47
2022-11-29T08:31:11.819Z,38.77
2022-11-29T08:34:14.655Z,33.58
2022-11-29T08:37:20.420Z,27.30
2022-11-29T08:40:24.476Z,29.33
2022-11-29T08:43:27.569Z,31.37
2022-11-29T08:46:51.006Z,25.97
2022-11-29T08:50:18.287Z,28.88
2022-11-29T08:53:41.559Z,35.28
2022-11-29T09:00:08.893Z,31.47
2022-11-29T09:03:31.614Z,29.70
2022-11-29T09:06:38.105Z,30.00
2022-11-29T09:09:41.477Z,25.23
2022-11-29T09:12:45.299Z,29.38
2022-11-29T09:15:48.650Z,30.20
2022-11-29T09:18:53.053Z,27.80
2022-11-29T09:21:55.906Z,31.70
2022-11-29T09:24:58.970Z,24.73
2022-11-29T09:28:03.386Z,38.40
2022-11-29T09:31:12.882Z,33.20
2022-11-29T09:34:17.438Z,30.07
2022-11-29T09:37:21.320Z,36.60
2022-11-29T09:40:43.331Z,30.08
2022-11-29T09:43:46.257Z,28.55
2022-11-29T09:46:58.970Z,34.57
2022-11-29T09:50:23.681Z,30.60
2022-11-29T09:53:32.957Z,31.92
2022-11-29T09:56:47.103Z,31.05
2022-11-29T09:59:53.371Z,30.33
2022-11-29T10:03:03.054Z,33.00
2022-11-29T10:06:09.493Z,36.23
2022-11-29T10:09:14.808Z,34.47
2022-11-29T10:12:41.037Z,37.47
2022-11-29T10:15:47.433Z,29.20
2022-11-29T10:18:52.115Z,32.17
2022-11-29T10:22:10.349Z,32.83
2022-11-29T10:25:19.236Z,30.50
2022-11-29T10:28:31.486Z,31.52
2022-11-29T10:31:47.062Z,33.97
2022-11-29T10:34:52.996Z,31.23
2022-11-29T10:38:29.138Z,35.77
2022-11-29T10:41:24.083Z,33.55
2022-11-29T10:44:29.714Z,37.60
2022-11-29T10:47:32.705Z,34.05
2022-11-29T10:50:38.355Z,42.33
2022-11-29T10:53:42.219Z,36.17
2022-11-29T10:56:45.566Z,40.53
2022-11-29T10:59:59.821Z,43.05
2022-11-29T11:03:28.257Z,37.63
2022-11-29T11:06:49.073Z,41.47
2022-11-29T11:09:57.443Z,44.23
2022-11-29T11:13:04.338Z,49.00
2022-11-29T11:16:19.058Z,48.92
2022-11-29T11:19:42.574Z,48.80
2022-11-29T11:22:44.997Z,47.17
2022-11-29T11:25:50.266Z,44.30
2022-11-29T11:29:00.716Z,47.13
2022-11-29T11:32:04.895Z,50.03
2022-11-29T11:35:21.025Z,44.55
2022-11-29T11:38:26.853Z,46.20
2022-11-29T11:41:51.783Z,49.17
2022-11-29T11:44:55.282Z,45.35
2022-11-29T11:48:05.628Z,41.47
2022-11-29T11:51:19.144Z,49.72
2022-11-29T11:54:22.107Z,46.87
2022-11-29T11:57:29.676Z,44.17
2022-11-29T12:01:07.352Z,44.42
2022-11-29T12:04:48.598Z,47.03
2022-11-29T12:08:19.894Z,40.78
2022-11-29T12:11:23.069Z,46.60
2022-11-29T12:14:45.725Z,39.23
2022-11-29T12:18:03.647Z,43.15
2022-11-29T12:21:06.132Z,49.50
2022-11-29T12:24:27.629Z,43.58
2022-11-29T12:27:33.095Z,45.80
2022-11-29T12:30:39.774Z,42.97
2022-11-29T12:33:42.724Z,40.38
2022-11-29T12:37:04.923Z,46.88
2022-11-29T12:40:07.852Z,46.95
2022-11-29T12:43:14.657Z,42.97
2022-11-29T12:46:26.437Z,50.07
2022-11-29T12:50:21.360Z,49.08
2022-11-29T12:53:44.229Z,46.90
2022-11-29T12:57:05.807Z,45.53
2022-11-29T13:00:17.897Z,43.67
2022-11-29T13:03:38.350Z,46.57
2022-11-29T13:07:01.617Z,41.42
2022-11-29T13:10:32.728Z,43.72
2022-11-29T13:14:13.832Z,49.40
2022-11-29T13:17:50.680Z,43.07
2022-11-29T13:21:27.409Z,43.43
2022-11-29T13:24:50.199Z,41.60
2022-11-29T13:28:16.392Z,43.75
2022-11-29T13:31:20.285Z,45.15
2022-11-29T13:34:37.019Z,41.33
2022-11-29T13:37:47.472Z,45.40
2022-11-29T13:40:59.944Z,40.42
2022-11-29T13:44:29.605Z,44.75
2022-11-29T13:47:31.843Z,45.10
2022-11-29T13:50:38.176Z,43.53
2022-11-29T13:53:48.865Z,44.60
2022-11-29T13:57:09.344Z,42.42
2022-11-29T14:00:44.305Z,49.33
2022-11-29T14:03:52.260Z,59.10
2022-11-29T14:07:03.754Z,41.70
2022-11-29T14:10:07.298Z,46.60
2022-11-29T14:13:14.186Z,48.60
2022-11-29T14:16:36.744Z,49.95
2022-11-29T14:19:39.197Z,46.45
2022-11-29T14:23:01.456Z,47.08
2022-11-29T14:26:05.244Z,47.90
2022-11-29T14:29:27.708Z,50.60
2022-11-29T14:32:38.408Z,52.70
2022-11-29T14:35:47.304Z,47.65
2022-11-29T14:39:09.536Z,50.42
2022-11-29T14:42:18.796Z,45.10
2022-11-29T14:45:26.430Z,52.67
2022-11-29T14:48:31.876Z,50.00
2022-11-29T14:51:34.713Z,53.85
2022-11-29T14:54:54.443Z,47.65
2022-11-29T14:57:57.430Z,60.93
2022-11-29T15:01:08.199Z,53.63
2022-11-29T15:04:12.669Z,56.55
2022-11-29T15:07:20.076Z,50.70
2022-11-29T15:10:25.784Z,63.53
2022-11-29T15:13:29.612Z,56.60
2022-11-29T15:16:41.071Z,53.40
2022-11-29T15:19:50.288Z,59.88
2022-11-29T15:22:58.818Z,58.22
2022-11-29T15:26:01.512Z,62.63
2022-11-29T15:29:18.274Z,57.73
2022-11-29T15:32:25.919Z,61.70
2022-11-29T15:35:28.520Z,60.63
2022-11-29T15:38:41.046Z,63.08
2022-11-29T15:41:43.432Z,51.58
2022-11-29T15:44:46.821Z,63.17
2022-11-29T15:47:49.244Z,57.37
2022-11-29T15:51:11.683Z,61.90
2022-11-29T15:54:20.043Z,60.78
2022-11-29T15:57:28.880Z,58.50
2022-11-29T16:00:32.985Z,57.17
2022-11-29T16:03:38.111Z,55.93
2022-11-29T16:06:41.487Z,62.00
2022-11-29T16:09:48.409Z,56.78
2022-11-29T16:12:53.399Z,61.03
2022-11-29T16:16:06.753Z,60.03
2022-11-29T16:19:29.218Z,48.83
2022-11-29T16:22:32.281Z,56.00
2022-11-29T16:30:20.123Z,50.13
2022-11-29T16:33:24.071Z,47.40
2022-11-29T16:36:26.916Z,52.83
2022-11-29T16:39:29.397Z,51.08
2022-11-29T16:42:33.568Z,52.20
2022-11-29T16:45:41.069Z,53.83
2022-11-29T16:48:43.522Z,53.87
2022-11-29T16:51:48.437Z,57.60
2022-11-29T16:54:51.030Z,50.35
2022-11-29T16:57:53.410Z,52.85
2022-11-29T17:00:56.029Z,57.03
2022-11-29T17:04:00.034Z,61.70
2022-11-29T17:07:02.385Z,57.37
2022-11-29T17:10:06.042Z,60.83
2022-11-29T17:13:11.674Z,52.22
2022-11-29T17:16:16.422Z,54.95
2022-11-29T17:19:19.776Z,60.50
2022-11-29T17:22:22.140Z,57.97
2022-11-29T17:25:24.515Z,55.83
2022-11-29T17:28:26.781Z,59.42
2022-11-29T17:31:29.837Z,62.17
2022-11-29T17:34:32.191Z,58.07
2022-11-29T17:37:34.509Z,64.67
2022-11-29T17:40:38.033Z,55.20
2022-11-29T17:43:40.847Z,53.13
2022-11-29T17:46:43.136Z,55.42
2022-11-29T17:49:46.271Z,65.40
2022-11-29T17:52:48.642Z,61.37
2022-11-29T17:55:50.949Z,61.88
2022-11-29T17:58:54.300Z,63.55
2022-11-29T18:01:56.703Z,73.22
2022-11-29T18:04:59.209Z,64.33
2022-11-29T18:08:01.645Z,61.43
2022-11-29T18:11:06.780Z,73.60
2022-11-29T18:14:10.334Z,69.90
2022-11-29T18:17:12.812Z,67.93
2022-11-29T18:20:15.191Z,74.70
2022-11-29T18:23:17.609Z,66.40
2022-11-29T18:26:21.015Z,71.30
2022-11-29T18:29:23.389Z,65.80
2022-11-29T18:32:25.884Z,66.45
2022-11-29T18:35:28.259Z,67.53
2022-11-29T18:38:30.781Z,62.70
2022-11-29T18:41:33.143Z,58.53
2022-11-29T18:44:35.540Z,53.47
2022-11-29T18:47:37.859Z,60.33
2022-11-29T18:50:40.206Z,63.27
2022-11-29T18:53:43.393Z,65.10
2022-11-29T18:56:46.203Z,73.75
2022-11-29T18:59:48.574Z,69.90
2022-11-29T19:02:51.333Z,61.13
2022-11-29T19:05:54.428Z,63.53
2022-11-29T19:08:59.921Z,61.00
2022-11-29T19:12:03.819Z,68.82
2022-11-29T19:15:06.353Z,65.57
2022-11-29T19:18:08.576Z,60.00
2022-11-29T19:21:15.130Z,61.13
2022-11-29T19:24:18.519Z,62.40
2022-11-29T19:27:26.084Z,70.15
2022-11-29T19:30:28.426Z,68.35
2022-11-29T19:33:31.441Z,68.60
2022-11-29T19:36:33.833Z,65.47
2022-11-29T19:39:36.299Z,65.43
2022-11-29T19:42:38.681Z,63.35
2022-11-29T19:45:41.076Z,62.53
2022-11-29T19:48:43.910Z,69.00
2022-11-29T19:51:46.289Z,60.80
2022-11-29T19:54:48.726Z,61.20
2022-11-29T19:57:51.076Z,60.97
2022-11-29T20:00:53.541Z,61.45
2022-11-29T20:03:56.801Z,60.13
2022-11-29T20:07:03.033Z,64.33
2022-11-29T20:10:23.516Z,60.63
2022-11-29T20:13:29.998Z,65.35
2022-11-29T20:16:32.671Z,71.45
2022-11-29T20:19:35.158Z,81.25
2022-11-29T20:22:37.926Z,61.63
2022-11-29T20:25:40.319Z,71.53
2022-11-29T20:28:43.259Z,75.20
2022-11-29T20:31:50.166Z,73.75
2022-11-29T20:34:53.770Z,66.30
2022-11-29T20:38:10.361Z,73.17
2022-11-29T20:41:15.332Z,72.93
2022-11-29T20:44:19.687Z,67.25
2022-11-29T20:47:23.921Z,62.13
2022-11-29T20:50:28.222Z,64.45
2022-11-29T20:53:41.192Z,64.40
2022-11-29T20:56:43.520Z,62.97
2022-11-29T20:59:46.349Z,52.63
2022-11-29T21:02:48.830Z,56.97
2022-11-29T21:05:51.781Z,52.28
2022-11-29T21:08:54.335Z,53.87
2022-11-29T21:11:56.932Z,57.53
2022-11-29T21:14:59.292Z,50.50
2022-11-29T21:18:01.754Z,52.67
2022-11-29T21:21:14.313Z,44.88
2022-11-29T21:24:31.924Z,41.93
2022-11-29T21:27:34.870Z,47.77
2022-11-29T21:30:37.694Z,35.88
2022-11-29T21:33:40.052Z,40.92
2022-11-29T21:36:42.316Z,33.33
2022-11-29T21:39:44.544Z,32.45
2022-11-29T21:42:46.752Z,37.27
2022-11-29T21:45:48.992Z,30.17
2022-11-29T21:48:52.901Z,31.67
2022-11-29T21:51:57.736Z,32.00
2022-11-29T21:54:59.950Z,32.90
2022-11-29T21:58:02.136Z,29.97
2022-11-29T22:01:14.835Z,30.83
2022-11-29T22:04:17.041Z,31.90
2022-11-29T22:07:19.327Z,29.15
2022-11-29T22:10:21.556Z,26.23
2022-11-29T22:13:23.750Z,31.40
2022-11-29T22:16:26.064Z,30.98
2022-11-29T22:19:29.648Z,30.27
2022-11-29T22:22:31.936Z,26.20
2022-11-29T22:25:34.199Z,27.65
2022-11-29T22:28:36.458Z,32.03
2022-11-29T22:31:38.766Z,37.67
2022-11-29T22:34:40.998Z,36.42
2022-11-29T22:37:43.152Z,35.47
2022-11-29T22:40:45.323Z,35.83
2022-11-29T22:43:47.588Z,33.10
2022-11-29T22:46:50.116Z,40.45
2022-11-29T22:49:52.347Z,41.35
2022-11-29T22:52:54.479Z,46.55
2022-11-29T22:56:00.148Z,50.40
2022-11-29T22:59:02.451Z,49.60
2022-11-29T23:02:04.764Z,44.75
2022-11-29T23:05:07.023Z,47.47
2022-11-29T23:08:09.172Z,48.05
2022-11-29T23:11:13.999Z,47.47
2022-11-29T23:14:16.219Z,52.50
2022-11-29T23:17:18.456Z,51.65
2022-11-29T23:20:21.056Z,45.75
2022-11-29T23:23:23.208Z,51.50
2022-11-29T23:26:28.044Z,50.30
2022-11-29T23:29:30.197Z,48.03
2022-11-29T23:32:32.354Z,49.42
2022-11-29T23:35:34.794Z,47.42
2022-11-29T23:38:37.181Z,48.90
2022-11-29T23:41:39.420Z,46.72
2022-11-29T23:44:41.611Z,44.73
2022-11-29T23:47:43.888Z,44.60
2022-11-29T23:50:46.347Z,47.65
2022-11-29T23:53:52.502Z,47.00
2022-11-29T23:56:54.714Z,43.13
2022-11-29T23:59:56.935Z,47.37
